This is the latest recevied weather packets stored in our database for station/object OE-11307. If no packets are shown the sender has not sent any weather packets the latest 10 day(s).
| Time | Temp. | Humidity | Pressure | Rain* | Wind** | Luminosity | Snow |
|---|---|---|---|---|---|---|---|
| 1787697688 | 13.33° C | 83% | 852.4 hPa | 0 mm | - | 0 W/m² | - |
| 1787697314 | 12.78° C | 88% | 852.2 hPa | 0 mm | - | 0 W/m² | - |
| 1787696714 | 13.89° C | 82% | 852.3 hPa | 0 mm | - | 0 W/m² | - |
| 1787695887 | 13.89° C | 82% | 852.4 hPa | 0 mm | - | 0 W/m² | - |
| 1787695514 | 13.33° C | 89% | 852.4 hPa | 0 mm | - | 0 W/m² | - |
| 1787694913 | 13.33° C | 89% | 852.3 hPa | 0 mm | - | 0 W/m² | - |
| 1787694087 | 13.33° C | 89% | 852.3 hPa | 0 mm | - | 0 W/m² | - |
| 1787693714 | 13.89° C | 87% | 852.3 hPa | 0 mm | - | 0 W/m² | - |
| 1787693113 | 13.89° C | 88% | 852.3 hPa | 0 mm | - | 0 W/m² | - |
| 1787692287 | 13.89° C | 87% | 852.4 hPa | 0 mm | - | 0 W/m² | - |
| 1787691913 | 13.89° C | 88% | 852.4 hPa | 0 mm | - | 0 W/m² | - |
| 1787691314 | 13.89° C | 88% | 852.5 hPa | 0 mm | - | 0 W/m² | - |
| 1787690487 | 13.89° C | 88% | 852.4 hPa | 0 mm | - | 0 W/m² | - |
| 1787690114 | 13.89° C | 89% | 852.5 hPa | 0 mm | - | 0 W/m² | - |
| 1787689514 | 13.89° C | 88% | 852.4 hPa | 0 mm | - | 0 W/m² | - |
| 1787688687 | 13.89° C | 88% | 852.3 hPa | 0 mm | - | 0 W/m² | - |
| 1787688313 | 13.89° C | 88% | 852.2 hPa | 0 mm | - | 0 W/m² | - |
| 1787687714 | 13.89° C | 88% | 852.1 hPa | 0 mm | - | 0 W/m² | - |
| 1787686887 | 13.89° C | 88% | 852 hPa | 0 mm | - | 0 W/m² | - |
| 1787686513 | 13.89° C | 89% | 852 hPa | 0 mm | - | 0 W/m² | - |
| 1787685914 | 13.89° C | 89% | 851.9 hPa | 0 mm | - | 0 W/m² | - |
| 1787685087 | 13.89° C | 88% | 851.9 hPa | 0 mm | - | 0 W/m² | - |
| 1787684714 | 13.89° C | 87% | 851.7 hPa | 0 mm | - | 0 W/m² | - |
| 1787684114 | 13.89° C | 88% | 851.7 hPa | 0 mm | - | 0 W/m² | - |
| 1787683287 | 14.44° C | 88% | 851.7 hPa | 0 mm | - | 0 W/m² | - |
* Rain latest hour (hover to see other rain measurements)
** Current wind speed in m/s (hover to see current wind gust speed)